Time;durP1;ratioP1;P1;durP2;ratioP2;P2;SDS_P1;SDS_P2;PMS_P1;PMS_P2;Temp;Humidity;BMP_temperature;BMP_pressure;BME280_temperature;BME280_humidity;BME280_pressure;Samples;Min_cycle;Max_cycle;Signal;HPM_P1;HPM_P2
2022/04/01 00:00:42;;;;;;;41.15;14.77;;;;;;;11.26;100.00;96345.50;4378876;32;20165;-75
2022/04/01 00:03:09;;;;;;;43.60;14.23;;;;;;;11.15;100.00;96344.28;4378842;32;20136;-75
2022/04/01 00:05:40;;;;;;;49.67;14.87;;;;;;;11.19;100.00;96340.28;4365277;32;20131;-75
2022/04/01 00:08:08;;;;;;;45.40;15.52;;;;;;;11.09;100.00;96336.44;4378725;32;20082;-75
2022/04/01 00:10:37;;;;;;;89.07;16.25;;;;;;;11.07;100.00;96333.22;4378912;32;20420;-75
2022/04/01 00:13:05;;;;;;;36.03;14.60;;;;;;;11.13;100.00;96338.44;4377576;32;20106;-75
2022/04/01 00:15:32;;;;;;;53.95;15.95;;;;;;;11.10;100.00;96335.44;4378629;32;20094;-75
2022/04/01 00:18:00;;;;;;;63.95;15.82;;;;;;;11.13;100.00;96325.34;4378525;32;20157;-75
2022/04/01 00:20:27;;;;;;;24.75;14.75;;;;;;;11.05;100.00;96333.38;4378597;32;20094;-74
2022/04/01 00:22:55;;;;;;;31.17;15.75;;;;;;;11.09;100.00;96332.00;4378159;32;20503;-75
2022/04/01 00:25:24;;;;;;;39.13;15.40;;;;;;;10.83;100.00;96330.16;4378373;32;20106;-74
2022/04/01 00:27:51;;;;;;;38.45;16.33;;;;;;;10.97;100.00;96328.34;4378351;32;20461;-75
2022/04/01 00:30:19;;;;;;;38.88;15.07;;;;;;;10.92;100.00;96325.53;4378664;32;20124;-74
2022/04/01 00:32:46;;;;;;;123.28;16.70;;;;;;;11.03;100.00;96324.94;4378319;32;20118;-75
2022/04/01 00:35:14;;;;;;;45.35;13.30;;;;;;;11.06;100.00;96321.13;4377312;32;20086;-75
2022/04/01 00:37:41;;;;;;;109.60;14.38;;;;;;;11.09;100.00;96328.56;4378197;32;20109;-75
2022/04/01 00:40:11;;;;;;;87.57;14.20;;;;;;;11.01;100.00;96316.47;4378257;32;20137;-75
2022/04/01 00:42:40;;;;;;;69.03;13.25;;;;;;;11.03;100.00;96314.44;4378669;32;20082;-75
2022/04/01 00:45:08;;;;;;;62.10;13.82;;;;;;;10.94;100.00;96305.97;4378410;32;20078;-75
2022/04/01 00:47:36;;;;;;;87.65;14.60;;;;;;;10.95;100.00;96302.34;4378094;32;20091;-75
2022/04/01 00:50:04;;;;;;;68.87;13.88;;;;;;;10.96;100.00;96305.78;4378165;32;20183;-75
2022/04/01 00:52:31;;;;;;;90.57;14.32;;;;;;;11.03;100.00;96311.03;4377988;32;20090;-75
2022/04/01 00:55:01;;;;;;;45.65;13.35;;;;;;;11.06;100.00;96314.06;4378004;32;20109;-75
2022/04/01 00:57:29;;;;;;;92.80;13.98;;;;;;;11.02;100.00;96312.84;4378455;32;20095;-75
2022/04/01 00:59:57;;;;;;;74.37;14.20;;;;;;;10.94;100.00;96305.97;4380266;32;20121;-75
2022/04/01 01:02:26;;;;;;;45.50;13.43;;;;;;;10.92;100.00;96308.00;4380426;32;20094;-75
2022/04/01 01:04:54;;;;;;;44.95;12.52;;;;;;;10.97;100.00;96310.81;4380077;32;20533;-75
2022/04/01 01:07:21;;;;;;;65.70;13.43;;;;;;;11.01;100.00;96306.00;4380098;32;20095;-75
2022/04/01 01:09:49;;;;;;;33.00;13.00;;;;;;;11.01;100.00;96317.28;4380409;32;20161;-75
2022/04/01 01:12:16;;;;;;;39.78;12.52;;;;;;;11.00;100.00;96317.47;4380112;32;20102;-74
2022/04/01 01:14:44;;;;;;;82.97;14.70;;;;;;;11.06;100.00;96319.28;4380088;32;20216;-75
2022/04/01 01:17:14;;;;;;;33.55;13.55;;;;;;;11.02;100.00;96315.44;4380185;32;20113;-75
2022/04/01 01:19:42;;;;;;;61.80;14.20;;;;;;;11.03;100.00;96317.06;4380261;32;20107;-75
2022/04/01 01:22:13;;;;;;;80.07;15.20;;;;;;;11.00;100.00;96315.66;4379907;32;20129;-75
2022/04/01 01:24:41;;;;;;;100.00;14.40;;;;;;;10.93;100.00;96319.28;4380007;32;20114;-75
2022/04/01 01:27:09;;;;;;;143.25;14.85;;;;;;;11.01;100.00;96321.72;4380046;32;20127;-75
2022/04/01 01:29:39;;;;;;;106.20;14.13;;;;;;;11.00;100.00;96315.66;4378796;32;20508;-75
2022/04/01 01:32:09;;;;;;;64.68;12.57;;;;;;;11.14;100.00;96315.66;4380012;32;20478;-74
2022/04/01 01:34:36;;;;;;;225.13;16.48;;;;;;;11.17;100.00;96320.50;4380071;32;20105;-75
2022/04/01 01:37:04;;;;;;;97.85;13.43;;;;;;;11.05;100.00;96312.44;4379954;32;20083;-74
2022/04/01 01:39:31;;;;;;;318.73;18.23;;;;;;;11.05;100.00;96301.94;4380037;32;20103;-75
2022/04/01 01:41:58;;;;;;;291.80;18.35;;;;;;;11.11;100.00;96306.41;4380300;32;20098;-75
2022/04/01 01:44:26;;;;;;;125.57;13.50;;;;;;;10.98;100.00;96307.19;4380071;32;20086;-74
2022/04/01 01:46:53;;;;;;;163.62;14.23;;;;;;;10.99;100.00;96315.84;4379910;32;20087;-75
2022/04/01 01:49:21;;;;;;;104.90;12.73;;;;;;;10.91;100.00;96314.22;4379939;32;20165;-75
2022/04/01 01:54:52;;;;;;;146.65;15.40;;;;;;;10.88;100.00;96321.69;4379844;32;20148;-74
2022/04/01 01:57:23;;;;;;;207.73;13.07;;;;;;;10.85;100.00;96311.63;4380010;32;20075;-75
2022/04/01 01:59:53;;;;;;;106.00;12.20;;;;;;;10.88;100.00;96303.38;4380020;32;20106;-74
2022/04/01 02:02:21;;;;;;;126.68;12.88;;;;;;;10.87;100.00;96312.22;4379940;32;20082;-75
2022/04/01 02:04:49;;;;;;;103.97;11.65;;;;;;;10.89;100.00;96312.84;4379711;32;20138;-74
2022/04/01 02:07:18;;;;;;;277.62;16.20;;;;;;;10.88;100.00;96313.84;4379756;32;20142;-74
2022/04/01 02:09:46;;;;;;;259.23;15.63;;;;;;;10.89;100.00;96310.22;4378666;32;20121;-75
2022/04/01 02:12:17;;;;;;;110.47;11.25;;;;;;;10.82;100.00;96311.03;4379740;32;20098;-75
2022/04/01 02:14:45;;;;;;;130.45;11.70;;;;;;;10.81;100.00;96311.22;4379694;32;20100;-74
2022/04/01 02:17:12;;;;;;;186.73;13.38;;;;;;;10.92;100.00;96307.19;4379747;32;20095;-74
2022/04/01 02:19:39;;;;;;;121.13;11.48;;;;;;;10.87;100.00;96299.13;4379604;32;20102;-74
2022/04/01 02:22:07;;;;;;;78.15;10.82;;;;;;;10.90;100.00;96311.81;4379456;32;20156;-74
2022/04/01 02:24:36;;;;;;;49.80;9.63;;;;;;;10.85;100.00;96307.19;4379773;32;20108;-74
2022/04/01 02:27:03;;;;;;;98.87;10.95;;;;;;;10.86;100.00;96300.16;4379770;32;20214;-74
2022/04/01 02:29:30;;;;;;;33.08;9.30;;;;;;;10.74;100.00;96292.06;4379622;32;20479;-75
2022/04/01 02:32:00;;;;;;;57.45;9.35;;;;;;;10.98;100.00;96281.00;4380012;32;20124;-74
2022/04/01 02:34:29;;;;;;;37.00;8.75;;;;;;;11.14;100.00;96274.56;4379844;32;20086;-74
2022/04/01 02:36:58;;;;;;;19.15;8.57;;;;;;;10.80;100.00;96258.03;4379559;32;20079;-74
2022/04/01 02:39:26;;;;;;;15.90;8.10;;;;;;;10.70;100.00;96256.81;4379540;32;20516;-74
2022/04/01 02:41:53;;;;;;;16.35;7.80;;;;;;;10.83;100.00;96275.16;4379823;32;20174;-74
2022/04/01 02:44:20;;;;;;;10.90;8.38;;;;;;;10.80;100.00;96278.16;4379461;32;20117;-74
2022/04/01 02:46:48;;;;;;;12.07;7.95;;;;;;;10.80;100.00;96284.22;4379413;32;20114;-74
2022/04/01 02:49:17;;;;;;;15.80;7.60;;;;;;;10.98;100.00;96272.34;4379839;32;20445;-74
2022/04/01 02:51:46;;;;;;;15.40;7.95;;;;;;;11.40;100.00;96274.72;4379327;32;20095;-74
2022/04/01 02:54:14;;;;;;;22.60;8.23;;;;;;;11.57;100.00;96277.72;4379835;32;20104;-74
2022/04/01 02:56:41;;;;;;;24.27;8.55;;;;;;;11.81;100.00;96274.44;4379360;32;20079;-74
2022/04/01 02:59:09;;;;;;;20.45;8.10;;;;;;;11.76;100.00;96271.63;4379643;32;20110;-74
2022/04/01 03:01:40;;;;;;;31.20;8.35;;;;;;;11.50;100.00;96273.28;4379657;32;20094;-74
2022/04/01 03:04:11;;;;;;;88.62;9.05;;;;;;;11.12;100.00;96260.03;4366154;32;20156;-74
2022/04/01 03:06:43;;;;;;;22.62;7.82;;;;;;;10.78;100.00;96254.81;4379622;32;20534;-74
2022/04/01 03:09:11;;;;;;;22.25;7.47;;;;;;;10.84;100.00;96255.81;4379680;32;20119;-74
2022/04/01 03:11:40;;;;;;;17.17;7.50;;;;;;;10.93;100.00;96270.34;4379629;32;20118;-74
2022/04/01 03:14:10;;;;;;;19.27;7.50;;;;;;;10.98;100.00;96274.97;4379576;32;20539;-74
2022/04/01 03:16:41;;;;;;;55.72;8.35;;;;;;;10.96;100.00;96297.91;4379444;32;20100;-74
2022/04/01 03:19:10;;;;;;;16.67;6.55;;;;;;;10.84;100.00;96297.72;4379534;32;20464;-74
2022/04/01 03:21:41;;;;;;;70.40;8.10;;;;;;;10.97;100.00;96281.19;4378828;32;20158;-74
2022/04/01 03:24:11;;;;;;;78.20;9.07;;;;;;;11.07;100.00;96259.84;4379482;32;20420;-74
2022/04/01 03:26:40;;;;;;;87.30;9.25;;;;;;;11.12;100.00;96244.31;4379455;32;20153;-74
2022/04/01 03:29:07;;;;;;;14.27;7.25;;;;;;;10.90;100.00;96248.94;4379398;32;20095;-74
2022/04/01 03:31:35;;;;;;;17.58;7.70;;;;;;;10.86;100.00;96263.47;4379274;32;20149;-74
2022/04/01 03:34:04;;;;;;;42.22;8.55;;;;;;;10.72;100.00;96271.31;4379388;32;20090;-74
2022/04/01 03:36:33;;;;;;;30.73;7.80;;;;;;;10.74;100.00;96268.50;4379167;32;20078;-74
2022/04/01 03:39:03;;;;;;;32.85;7.55;;;;;;;10.79;100.00;96273.94;4379434;32;20102;-74
2022/04/01 03:41:30;;;;;;;53.78;7.10;;;;;;;10.78;100.00;96280.16;4379162;32;20217;-74
2022/04/01 03:44:00;;;;;;;67.87;7.30;;;;;;;10.80;100.00;96281.59;4379007;32;20116;-74
2022/04/01 03:46:55;;;;;;;59.78;7.60;;;;;;;10.79;100.00;96277.34;4379217;32;20550;-74
2022/04/01 03:49:23;;;;;;;184.00;9.35;;;;;;;10.81;100.00;96280.59;4378808;32;20211;-74
2022/04/01 03:51:51;;;;;;;142.65;8.45;;;;;;;10.75;100.00;96280.56;4377811;32;20125;-74
2022/04/01 03:54:19;;;;;;;132.12;8.63;;;;;;;10.70;100.00;96286.41;4378885;32;20091;-74
2022/04/01 03:56:58;;;;;;;53.35;6.55;;;;;;;10.66;100.00;96279.97;4365755;32;20114;-74
2022/04/01 03:59:40;;;;;;;155.05;8.38;;;;;;;10.72;100.00;96280.97;4379192;32;20095;-74
2022/04/01 04:02:13;;;;;;;110.55;8.02;;;;;;;10.76;100.00;96280.38;4379206;32;20113;-74
2022/04/01 04:04:41;;;;;;;117.50;8.73;;;;;;;10.84;100.00;96274.16;4378803;32;20091;-74
2022/04/01 04:07:09;;;;;;;152.70;8.80;;;;;;;10.74;100.00;96278.97;4378880;32;20120;-74
2022/04/01 04:09:39;;;;;;;158.00;8.55;;;;;;;10.65;100.00;96268.66;4378943;32;20569;-74
2022/04/01 04:12:07;;;;;;;67.20;6.90;;;;;;;10.67;100.00;96260.63;4378634;32;20114;-74
2022/04/01 04:14:36;;;;;;;86.12;7.80;;;;;;;10.56;100.00;96250.75;4378666;32;20095;-74
2022/04/01 04:17:10;;;;;;;61.72;6.97;;;;;;;10.29;100.00;96245.41;4378825;32;20589;-74
2022/04/01 04:19:58;;;;;;;16.35;6.30;;;;;;;10.33;100.00;96243.22;4365607;32;20095;-74
2022/04/01 04:22:50;;;;;;;15.45;5.65;;;;;;;10.43;100.00;96243.66;4364221;32;20094;-74
2022/04/01 04:25:21;;;;;;;9.55;6.18;;;;;;;10.58;100.00;96243.50;4378403;32;20121;-74
2022/04/01 04:27:59;;;;;;;10.75;5.97;;;;;;;10.59;100.00;96245.13;4378688;32;20071;-74
2022/04/01 04:30:35;;;;;;;6.18;5.57;;;;;;;10.48;100.00;96247.31;4364651;32;20473;-74
2022/04/01 04:33:07;;;;;;;18.85;6.10;;;;;;;10.51;100.00;96250.53;4379686;32;20094;-74
2022/04/01 04:35:39;;;;;;;7.25;6.07;;;;;;;10.63;100.00;96259.44;4380526;32;20083;-73
2022/04/01 04:38:08;;;;;;;8.85;5.78;;;;;;;10.72;100.00;96254.78;4380693;32;20083;-73
2022/04/01 04:40:38;;;;;;;13.55;6.03;;;;;;;10.57;100.00;96257.59;4380645;32;20150;-73
2022/04/01 04:43:10;;;;;;;21.10;5.53;;;;;;;10.52;100.00;96260.78;4367572;32;20106;-73
2022/04/01 04:45:38;;;;;;;11.68;5.82;;;;;;;10.55;100.00;96264.84;4380508;32;20091;-74
2022/04/01 04:48:06;;;;;;;11.50;6.22;;;;;;;10.65;100.00;96267.88;4380421;32;20162;-73
2022/04/01 04:50:34;;;;;;;203.98;11.68;;;;;;;10.83;100.00;96275.94;4366455;32;20173;-73
2022/04/01 04:53:03;;;;;;;73.32;8.23;;;;;;;10.48;100.00;96275.31;4366761;32;20102;-72
2022/04/01 04:55:32;;;;;;;82.12;8.38;;;;;;;10.44;100.00;96277.50;4366712;32;20394;-71
2022/04/01 04:58:01;;;;;;;53.78;8.65;;;;;;;10.37;100.00;96268.84;4379926;32;20094;-72
2022/04/01 05:00:29;;;;;;;14.73;7.43;;;;;;;10.25;100.00;96270.34;4379935;32;20106;-71
2022/04/01 05:06:16;;;;;;;13.85;6.70;;;;;;;10.00;100.00;96283.97;4379522;32;20137;-72
2022/04/01 05:08:48;;;;;;;12.48;6.22;;;;;;;9.95;100.00;96287.16;4379838;32;20109;-72
2022/04/01 05:11:43;;;;;;;11.40;6.47;;;;;;;9.89;100.00;96287.16;4379957;32;20113;-71
2022/04/01 05:18:22;;;;;;;17.92;6.65;;;;;;;9.75;100.00;96283.66;4379711;32;20262;-72
2022/04/01 05:24:02;;;;;;;41.50;5.95;;;;;;;9.47;100.00;96283.69;4374948;32;20152;-71
2022/04/01 05:26:40;;;;;;;28.45;5.75;;;;;;;9.54;100.00;96284.53;4366074;32;20151;-71
2022/04/01 05:29:27;;;;;;;16.70;4.78;;;;;;;9.61;100.00;96279.34;4380230;32;20087;-71
2022/04/01 05:32:03;;;;;;;22.85;4.95;;;;;;;9.46;100.00;96282.84;4379725;32;20067;-71
2022/04/01 05:34:47;;;;;;;6.15;3.62;;;;;;;9.39;100.00;96288.06;4380287;32;20151;-70
2022/04/01 05:37:16;;;;;;;3.95;2.92;;;;;;;9.21;100.00;96282.50;4380222;32;20091;-71
2022/04/01 05:39:48;;;;;;;5.90;3.22;;;;;;;9.10;100.00;96283.84;4379903;32;20083;-71
2022/04/01 05:42:18;;;;;;;3.67;2.80;;;;;;;9.11;100.00;96282.03;4380108;32;20110;-71
2022/04/01 05:48:20;;;;;;;6.00;3.78;;;;;;;9.19;100.00;96281.87;4379895;32;20549;-70
2022/04/01 05:50:50;;;;;;;4.45;2.67;;;;;;;8.81;100.00;96283.00;4366437;32;20082;-70
2022/04/01 05:56:50;;;;;;;4.45;2.80;;;;;;;8.61;100.00;96289.81;4379612;32;20141;-71
2022/04/01 05:59:19;;;;;;;9.90;3.45;;;;;;;8.50;100.00;96293.72;4379463;32;20099;-71
2022/04/01 06:02:05;;;;;;;3.75;2.60;;;;;;;8.40;100.00;96285.34;4379432;32;20091;-71
2022/04/01 06:04:45;;;;;;;2.90;2.10;;;;;;;8.19;100.00;96276.53;4379450;32;20142;-72
2022/04/01 06:07:28;;;;;;;3.45;1.92;;;;;;;8.31;100.00;96271.63;4379622;32;20090;-71
2022/04/01 06:10:05;;;;;;;2.97;2.35;;;;;;;8.25;100.00;96274.97;4379503;32;20091;-72
2022/04/01 06:16:42;;;;;;;4.35;2.47;;;;;;;8.35;100.00;96276.28;4379582;32;20243;-73
2022/04/01 06:19:42;;;;;;;;;;;;;;;8.31;100.00;96269.84;4347780;33;20186;-72
2022/04/01 06:22:20;;;;;;;6.43;2.08;;;;;;;8.38;100.00;96266.50;4303712;33;19996;-73
2022/04/01 06:24:50;;;;;;;3.72;1.90;;;;;;;8.49;100.00;96274.66;4303345;33;20202;-74
2022/04/01 06:27:30;;;;;;;5.57;2.62;;;;;;;8.59;100.00;96276.97;4303874;33;20151;-73
2022/04/01 06:30:05;;;;;;;2.92;2.20;;;;;;;8.64;100.00;96285.03;4292223;33;20151;-73
2022/04/01 06:32:45;;;;;;;4.05;2.03;;;;;;;8.72;100.00;96291.13;4303537;33;20128;-72
2022/04/01 06:35:30;;;;;;;2.92;1.98;;;;;;;8.92;100.00;96286.91;4303856;33;20154;-73
2022/04/01 06:38:06;;;;;;;4.95;2.20;;;;;;;8.97;100.00;96278.50;4303733;33;20112;-72
2022/04/01 06:40:56;;;;;;;4.25;2.15;;;;;;;8.91;100.00;96292.31;4303170;33;20112;-72
2022/04/01 06:43:24;;;;;;;4.03;2.15;;;;;;;9.02;100.00;96286.56;4303391;33;20184;-72
2022/04/01 06:46:08;;;;;;;5.20;2.67;;;;;;;9.01;100.00;96293.59;4303457;33;20593;-71
2022/04/01 06:48:36;;;;;;;4.62;2.53;;;;;;;9.29;100.00;96294.63;4303398;33;20336;-71
2022/04/01 06:51:08;;;;;;;4.18;2.53;;;;;;;9.44;100.00;96297.13;4303173;33;20108;-71
2022/04/01 06:53:55;;;;;;;3.85;2.47;;;;;;;9.63;100.00;96303.47;4303630;33;20146;-71
2022/04/01 06:56:26;;;;;;;7.18;1.85;;;;;;;9.35;100.00;96307.72;4313329;33;20123;-71
2022/04/01 06:58:53;;;;;;;8.93;2.03;;;;;;;8.96;100.00;96301.22;4375047;32;20165;-71
2022/04/01 07:01:21;;;;;;;9.68;1.62;;;;;;;8.72;100.00;96289.34;4379183;32;20107;-71
2022/04/01 07:03:48;;;;;;;2.42;1.40;;;;;;;8.26;100.00;96282.59;4379201;32;20133;-71
2022/04/01 07:06:16;;;;;;;1.73;1.37;;;;;;;8.16;100.00;96302.94;4379183;32;20152;-71
2022/04/01 07:08:44;;;;;;;2.80;1.85;;;;;;;8.18;100.00;96293.97;4379189;32;20107;-70
2022/04/01 07:14:42;;;;;;;3.20;1.95;;;;;;;7.87;100.00;96299.38;4379076;32;20109;-70
2022/04/01 07:17:09;;;;;;;3.33;2.22;;;;;;;7.74;100.00;96304.44;4379101;32;20110;-69
2022/04/01 07:19:36;;;;;;;2.55;2.00;;;;;;;7.48;100.00;96310.91;4379029;32;20082;-70
2022/04/01 07:22:04;;;;;;;3.40;1.85;;;;;;;7.58;100.00;96305.41;4379572;32;20103;-70
2022/04/01 07:24:32;;;;;;;2.87;2.22;;;;;;;7.42;100.00;96301.19;4365619;32;20504;-70
2022/04/01 07:27:00;;;;;;;3.97;2.00;;;;;;;7.26;100.00;96310.78;4378932;32;20440;-70
2022/04/01 07:32:59;;;;;;;3.47;2.47;;;;;;;7.09;100.00;96299.69;4379256;32;20173;-70
2022/04/01 07:35:27;;;;;;;3.12;2.33;;;;;;;7.14;100.00;96296.56;4379216;32;20108;-70
2022/04/01 07:37:54;;;;;;;3.78;2.28;;;;;;;6.98;100.00;96294.09;4379054;32;20161;-69
2022/04/01 07:40:24;;;;;;;4.20;2.28;;;;;;;7.14;100.00;96304.37;4365474;32;20079;-71
2022/04/01 07:46:22;;;;;;;2.53;1.75;;;;;;;7.00;100.00;96308.56;4378988;32;20117;-71
2022/04/01 07:48:49;;;;;;;3.80;2.25;;;;;;;6.95;100.00;96310.91;4378760;32;20087;-71
2022/04/01 07:54:48;;;;;;;2.65;1.60;;;;;;;6.78;100.00;96307.59;4378906;32;20167;-70
2022/04/01 08:00:45;;;;;;;5.03;2.12;;;;;;;6.61;100.00;96319.09;4378691;32;20109;-70
2022/04/01 08:03:12;;;;;;;1.92;1.40;;;;;;;6.55;100.00;96326.59;4378428;32;20090;-70
2022/04/01 08:09:10;;;;;;;3.50;1.85;;;;;;;6.79;100.00;96330.03;4380506;32;20152;-70
2022/04/01 08:14:56;;;;;;;4.32;2.12;;;;;;;7.00;100.00;96326.78;4380408;32;20509;-72
2022/04/01 08:17:24;;;;;;;4.75;2.30;;;;;;;7.06;100.00;96339.09;4379829;32;20111;-71
2022/04/01 08:23:22;;;;;;;4.72;2.45;;;;;;;7.41;100.00;96343.84;4380320;32;20529;-71
2022/04/01 08:25:50;;;;;;;5.40;1.95;;;;;;;7.18;100.00;96352.50;4380335;32;20067;-71
2022/04/01 08:31:47;;;;;;;4.43;2.67;;;;;;;6.95;100.00;96355.13;4380200;32;20156;-71
2022/04/01 08:37:45;;;;;;;5.37;2.40;;;;;;;6.70;100.00;96359.69;4380159;32;20144;-72
2022/04/01 08:43:45;;;;;;;3.47;2.15;;;;;;;6.43;100.00;96369.59;4380118;32;20157;-71
2022/04/01 08:49:43;;;;;;;4.12;2.35;;;;;;;5.99;100.00;96383.09;4380096;32;20100;-70
2022/04/01 08:52:10;;;;;;;6.18;2.60;;;;;;;6.04;100.00;96383.38;4380309;32;20099;-71
2022/04/01 08:54:37;;;;;;;4.68;2.22;;;;;;;5.96;100.00;96386.00;4380021;32;20094;-71
2022/04/01 08:57:05;;;;;;;3.87;2.60;;;;;;;6.14;100.00;96391.00;4380170;32;20110;-71
2022/04/01 08:59:33;;;;;;;4.05;2.42;;;;;;;6.26;100.00;96388.84;4380062;32;20117;-70
2022/04/01 09:02:05;;;;;;;3.72;2.55;;;;;;;6.35;100.00;96385.25;4379931;32;20169;-72
2022/04/01 09:04:33;;;;;;;6.00;2.47;;;;;;;6.47;100.00;96380.47;4380199;32;20117;-71
2022/04/01 09:07:14;;;;;;;3.62;2.30;;;;;;;6.62;100.00;96383.16;4380050;32;20100;-72
2022/04/01 09:09:43;;;;;;;7.12;3.33;;;;;;;6.65;100.00;96382.81;4379875;32;20134;-71
2022/04/01 09:12:15;;;;;;;3.95;2.40;;;;;;;6.69;100.00;96379.69;4380080;32;20095;-72
2022/04/01 09:14:53;;;;;;;4.47;2.50;;;;;;;6.63;100.00;96393.41;4380165;32;20150;-72
2022/04/01 09:17:21;;;;;;;4.80;2.55;;;;;;;6.48;100.00;96385.50;4380003;32;20075;-72
2022/04/01 09:23:23;;;;;;;5.50;2.75;;;;;;;6.57;100.00;96388.84;4379932;32;20179;-72
2022/04/01 09:29:23;;;;;;;4.10;2.62;;;;;;;6.00;100.00;96395.13;4379962;32;20416;-72
2022/04/01 09:31:53;;;;;;;4.22;2.55;;;;;;;5.90;100.00;96391.84;4379830;32;20082;-72
2022/04/01 09:34:29;;;;;;;4.35;2.58;;;;;;;6.01;100.00;96396.72;4379891;32;20114;-72
2022/04/01 09:40:28;;;;;;;4.37;2.10;;;;;;;6.09;100.00;96395.91;4379969;32;20204;-71
2022/04/01 09:42:57;;;;;;;7.10;3.40;;;;;;;6.07;100.00;96400.44;4379902;32;20152;-71
2022/04/01 09:48:55;;;;;;;7.30;4.00;;;;;;;6.11;100.00;96405.13;4379939;32;20134;-71
2022/04/01 09:51:24;;;;;;;8.00;4.57;;;;;;;6.11;100.00;96407.75;4379797;32;20090;-70
2022/04/01 09:53:53;;;;;;;10.85;5.40;;;;;;;6.08;100.00;96407.28;4379888;32;20133;-70
2022/04/01 10:00:12;;;;;;;11.48;6.07;;;;;;;6.19;100.00;96409.50;4379843;32;20198;-70
2022/04/01 10:02:39;;;;;;;8.77;5.05;;;;;;;6.29;100.00;96404.13;4379760;32;20097;-70
2022/04/01 10:05:07;;;;;;;9.90;5.25;;;;;;;6.14;100.00;96412.59;4379592;32;20091;-70
2022/04/01 10:07:34;;;;;;;7.87;5.00;;;;;;;6.29;100.00;96409.31;4379253;32;20537;-70
2022/04/01 10:10:04;;;;;;;10.48;5.87;;;;;;;6.25;100.00;96414.03;4365870;32;20966;-70
2022/04/01 10:12:38;;;;;;;9.23;5.12;;;;;;;6.31;100.00;96420.34;4379056;32;20083;-69
2022/04/01 10:15:07;;;;;;;11.50;6.28;;;;;;;6.36;100.00;96415.47;4365443;32;20193;-70
2022/04/01 10:21:21;;;;;;;7.80;4.90;;;;;;;6.27;100.00;96424.25;4379220;32;20145;-69
2022/04/01 10:24:18;;;;;;;9.63;5.50;;;;;;;6.28;100.00;96436.28;4378850;32;20082;-70
2022/04/01 10:30:19;;;;;;;8.75;5.43;;;;;;;6.09;100.00;96430.50;4377639;32;20210;-71
2022/04/01 10:36:29;;;;;;;10.50;6.10;;;;;;;6.31;100.00;96434.16;4378548;32;20162;-71
2022/04/01 10:39:17;;;;;;;10.65;5.47;;;;;;;6.30;100.00;96452.53;4378903;32;20070;-71
2022/04/01 10:45:17;;;;;;;7.97;4.85;;;;;;;6.62;100.00;96445.59;4378833;32;20549;-71
2022/04/01 10:51:39;;;;;;;9.10;5.47;;;;;;;6.55;100.00;96453.25;4378664;32;20102;-72
2022/04/01 10:54:12;;;;;;;10.07;6.03;;;;;;;6.95;100.00;96455.81;4379449;32;20404;-70
2022/04/01 11:00:15;;;;;;;8.18;5.10;;;;;;;6.92;100.00;96462.19;4379129;32;20561;-70
2022/04/01 11:06:25;;;;;;;8.32;5.00;;;;;;;6.75;100.00;96466.66;4379091;32;20588;-71
2022/04/01 11:08:53;;;;;;;8.68;5.30;;;;;;;6.77;100.00;96466.47;4378856;32;20128;-70
2022/04/01 11:11:21;;;;;;;7.30;5.43;;;;;;;6.75;100.00;96470.09;4378532;32;20474;-71
2022/04/01 11:17:18;;;;;;;11.48;5.57;;;;;;;6.77;100.00;96482.09;4378916;32;20152;-71
2022/04/01 11:23:16;;;;;;;11.73;5.65;;;;;;;6.67;100.00;96480.50;4378633;32;20238;-71
2022/04/01 11:29:20;;;;;;;10.32;6.10;;;;;;;6.68;100.00;96479.53;4378871;32;20121;-71
2022/04/01 11:31:48;;;;;;;15.18;5.55;;;;;;;6.74;100.00;96467.66;4365621;32;20165;-70
2022/04/01 11:34:15;;;;;;;7.07;4.43;;;;;;;6.64;100.00;96472.25;4365438;32;20091;-70
2022/04/01 11:36:42;;;;;;;13.88;5.78;;;;;;;6.70;100.00;96466.38;4378860;32;20079;-69
2022/04/01 11:43:02;;;;;;;8.48;5.62;;;;;;;6.98;100.00;96471.94;4378509;32;20182;-69
2022/04/01 11:45:42;;;;;;;9.65;4.95;;;;;;;7.18;100.00;96466.28;4378464;32;20136;-69
2022/04/01 11:48:35;;;;;;;7.35;4.95;;;;;;;7.13;100.00;96465.97;4378600;32;20140;-69
2022/04/01 11:51:05;;;;;;;7.65;4.20;;;;;;;7.32;100.00;96472.53;4378646;32;20083;-69
2022/04/01 11:53:37;;;;;;;8.43;4.85;;;;;;;7.27;100.00;96458.22;4378397;32;20098;-69
2022/04/01 11:56:07;;;;;;;7.90;4.97;;;;;;;7.51;100.00;96474.69;4378655;32;20424;-69
2022/04/01 11:58:56;;;;;;;8.25;4.78;;;;;;;7.46;100.00;96462.19;4378368;32;20113;-69
2022/04/01 12:01:29;;;;;;;9.60;5.75;;;;;;;7.69;100.00;96455.31;4331728;33;20564;-69
2022/04/01 12:10:26;;;;;;;9.00;6.12;;;;;;;7.41;100.00;96461.06;4331897;33;20098;-69
2022/04/01 12:13:04;;;;;;;9.30;6.18;;;;;;;7.26;100.00;96468.81;4331683;33;20502;-69
2022/04/01 12:15:39;;;;;;;9.02;5.82;;;;;;;7.42;100.00;96465.31;4332003;33;20454;-69
2022/04/01 12:18:13;;;;;;;11.23;7.00;;;;;;;7.37;100.00;96475.41;4331812;33;20156;-69
2022/04/01 12:20:42;;;;;;;11.15;6.82;;;;;;;7.49;100.00;96481.03;4331731;33;20123;-69
2022/04/01 12:23:16;;;;;;;9.60;6.35;;;;;;;7.51;100.00;96477.28;4331563;33;20104;-68
2022/04/01 12:25:45;;;;;;;11.82;6.65;;;;;;;7.15;100.00;96477.03;4331809;33;20155;-68
2022/04/01 12:28:13;;;;;;;10.80;6.45;;;;;;;7.38;100.00;96488.25;4331705;33;20324;-68
2022/04/01 12:30:55;;;;;;;11.77;7.22;;;;;;;7.51;100.00;96492.91;4331860;33;20167;-68
2022/04/01 12:37:00;;;;;;;12.98;8.05;;;;;;;7.17;100.00;96490.69;4331604;33;20126;-69
2022/04/01 12:39:35;;;;;;;13.90;8.48;;;;;;;7.33;100.00;96500.19;4372982;32;20086;-69
2022/04/01 12:42:10;;;;;;;10.68;6.70;;;;;;;7.40;100.00;96511.53;4378337;32;20109;-69
2022/04/01 12:44:44;;;;;;;11.07;6.80;;;;;;;7.63;100.00;96506.31;4378184;32;20103;-69
2022/04/01 12:47:25;;;;;;;12.93;8.23;;;;;;;7.41;100.00;96506.16;4378125;32;20084;-69
2022/04/01 12:49:54;;;;;;;12.05;8.15;;;;;;;7.50;100.00;96496.50;4378146;32;20158;-69
2022/04/01 12:52:24;;;;;;;15.07;8.95;;;;;;;7.21;100.00;96518.81;4377967;32;20405;-69
2022/04/01 12:55:00;;;;;;;14.20;7.72;;;;;;;7.02;100.00;96507.03;4366658;32;20652;-69
2022/04/01 12:57:28;;;;;;;13.93;8.27;;;;;;;7.03;100.00;96519.06;4380278;32;20107;-69
2022/04/01 12:59:56;;;;;;;12.30;8.57;;;;;;;7.12;100.00;96514.62;4380146;32;20109;-69
2022/04/01 13:06:10;;;;;;;15.63;8.57;;;;;;;6.92;100.00;96515.06;4380328;32;20133;-69
2022/04/01 13:08:38;;;;;;;17.00;10.20;;;;;;;6.85;100.00;96524.50;4379108;32;20529;-69
2022/04/01 13:11:15;;;;;;;18.70;11.15;;;;;;;6.69;100.00;96529.78;4380185;32;20161;-69
2022/04/01 13:13:50;;;;;;;17.08;9.93;;;;;;;6.61;100.00;96525.41;4380061;32;20083;-69
2022/04/01 13:16:17;;;;;;;19.87;11.00;;;;;;;6.73;100.00;96531.06;4380301;32;20149;-70
2022/04/01 13:18:45;;;;;;;18.35;10.52;;;;;;;6.78;100.00;96531.38;4379948;32;20102;-70
2022/04/01 13:21:12;;;;;;;23.60;12.32;;;;;;;6.74;100.00;96543.13;4380038;32;20087;-70
2022/04/01 13:23:39;;;;;;;19.90;11.23;;;;;;;6.73;100.00;96533.69;4379758;32;20071;-70
2022/04/01 13:26:07;;;;;;;21.30;12.30;;;;;;;6.92;100.00;96551.50;4379942;32;20118;-70
2022/04/01 13:28:34;;;;;;;18.27;10.93;;;;;;;6.89;100.00;96543.22;4380095;32;20554;-70
2022/04/01 13:31:06;;;;;;;22.15;12.37;;;;;;;6.92;100.00;96545.50;4379729;32;20160;-70
2022/04/01 13:33:33;;;;;;;20.10;10.57;;;;;;;6.90;100.00;96537.84;4379765;32;20093;-70
2022/04/01 13:36:00;;;;;;;19.65;10.57;;;;;;;7.24;100.00;96534.09;4379882;32;20512;-70
2022/04/01 13:38:28;;;;;;;18.62;11.30;;;;;;;7.10;100.00;96537.41;4366127;32;20110;-70
2022/04/01 13:44:30;;;;;;;17.70;11.20;;;;;;;6.97;100.00;96542.38;4379694;32;20101;-71
2022/04/01 13:46:58;;;;;;;19.92;10.98;;;;;;;6.90;100.00;96535.25;4366357;32;20103;-71
2022/04/01 13:49:26;;;;;;;20.77;11.85;;;;;;;6.91;100.00;96560.28;4379917;32;20110;-71
2022/04/01 13:51:53;;;;;;;17.62;10.52;;;;;;;6.89;100.00;96538.81;4379686;32;20091;-71
2022/04/01 13:54:21;;;;;;;15.77;10.45;;;;;;;6.93;100.00;96547.91;4379369;32;20154;-70
2022/04/01 13:56:48;;;;;;;18.00;11.60;;;;;;;6.85;100.00;96549.75;4379682;32;20397;-70
2022/04/01 13:59:15;;;;;;;19.67;11.40;;;;;;;6.72;100.00;96548.47;4379617;32;20098;-70